Big Bear Station Historical Data
Daily Summary for May 7, 2019 Units:  English    Metric   Both
Next Day »
Daily Weekly Monthly Yearly Custom
  High: Low: Average:
Temperature: 64 °F 32.2 °F 46.9 °F
Dew Point: 46.3 °F 30.9 °F 37.7 °F
Humidity: 98% 36% 73%
Wind Speed: 6.8mph 0mph 1.8mph
Wind Gust: -999mph - -
Wind- - West
Pressure: 23.48 in 23.39 in -
Precipitation: 0 in    
Historical Graphs
 
 
Tabular Data for May 7, 2019
Time Temperature Dew Point Pressure Wind Wind Speed Wind Gust Humidity Rainfall Rate (Hourly)
00:08 35.6 °F 34.6 °F 23.39 in Calm   -999 mph 96% 0.00 in
00:24 35.4 °F 34.4 °F 23.39 in Calm   -999 mph 96% 0.00 in
00:40 36.1 °F 34.8 °F 23.39 in Calm   -999 mph 95% 0.00 in
00:55 36.3 °F 34.7 °F 23.39 in Calm   -999 mph 94% 0.00 in
01:10 36.5 °F 34.9 °F 23.40 in Calm   -999 mph 94% 0.00 in
01:25 36.3 °F 34.7 °F 23.39 in Calm   -999 mph 94% 0.00 in
01:41 35.6 °F 34 °F 23.39 in Calm   -999 mph 94% 0.00 in
01:56 35.1 °F 33.8 °F 23.39 in Calm   -999 mph 95% 0.00 in
02:11 34.5 °F 33.2 °F 23.39 in Calm   -999 mph 95% 0.00 in
02:26 34.2 °F 33.2 °F 23.39 in Calm   -999 mph 96% 0.00 in
02:41 34 °F 33 °F 23.39 in Calm   -999 mph 96% 0.00 in
02:57 33.8 °F 32.8 °F 23.39 in Calm   -999 mph 96% 0.00 in
03:12 33.6 °F 32.6 °F 23.39 in South 1.7 mph -999 mph 96% 0.00 in
03:28 33.4 °F 32.4 °F 23.40 in Calm   -999 mph 96% 0.00 in
03:43 33.4 °F 32.4 °F 23.40 in Calm   -999 mph 96% 0.00 in
03:58 33.4 °F 32.4 °F 23.40 in Calm   -999 mph 96% 0.00 in
04:13 33.3 °F 32.3 °F 23.40 in Calm   -999 mph 96% 0.00 in
04:28 33.1 °F 32.1 °F 23.40 in Calm   -999 mph 96% 0.00 in
04:44 33.1 °F 32.1 °F 23.40 in SSW 1.7 mph -999 mph 96% 0.00 in
04:59 32.7 °F 31.7 °F 23.40 in South 1.7 mph -999 mph 96% 0.00 in
05:14 32.4 °F 31.1 °F 23.40 in South 2.2 mph -999 mph 95% 0.00 in
05:29 32.2 °F 30.9 °F 23.41 in Calm   -999 mph 95% 0.00 in
05:45 32.4 °F 31.4 °F 23.41 in Calm   -999 mph 96% 0.00 in
06:00 32.5 °F 31.7 °F 23.42 in South 2.2 mph -999 mph 97% 0.00 in
06:15 32.4 °F 31.6 °F 23.42 in Calm   -999 mph 97% 0.00 in
06:30 33.1 °F 32.6 °F 23.43 in Calm   -999 mph 98% 0.00 in
06:45 33.4 °F 32.4 °F 23.43 in Calm   -999 mph 96% 0.00 in
07:01 33.8 °F 32.8 °F 23.43 in Calm   -999 mph 96% 0.00 in
07:16 35.1 °F 34.1 °F 23.44 in Calm   -999 mph 96% 0.00 in
07:31 36.3 °F 35.3 °F 23.44 in Calm   -999 mph 96% 0.00 in
07:46 37.8 °F 36.8 °F 23.44 in Calm   -999 mph 96% 0.00 in
08:01 39.9 °F 37.5 °F 23.45 in Calm   -999 mph 91% 0.00 in
08:17 41.5 °F 37.3 °F 23.45 in Calm   -999 mph 85% 0.00 in
08:32 43.2 °F 38.1 °F 23.45 in Calm   -999 mph 82% 0.00 in
08:47 44.6 °F 37.8 °F 23.45 in Calm   -999 mph 77% 0.00 in
09:02 46.9 °F 37.6 °F 23.45 in NW 2.7 mph -999 mph 70% 0.00 in
09:18 49.3 °F 38.4 °F 23.46 in NNW 3.7 mph -999 mph 66% 0.00 in
09:33 51.8 °F 39.6 °F 23.46 in North 2.7 mph -999 mph 63% 0.00 in
09:48 52.3 °F 38 °F 23.46 in NW 2.7 mph -999 mph 58% 0.00 in
10:03 52.9 °F 37.6 °F 23.47 in Calm   -999 mph 56% 0.00 in
10:18 54.7 °F 38.4 °F 23.47 in North 1.7 mph -999 mph 54% 0.00 in
10:34 55.2 °F 36.9 °F 23.47 in Calm   -999 mph 50% 0.00 in
10:49 56.3 °F 37.4 °F 23.48 in NW 2.2 mph -999 mph 49% 0.00 in
11:04 58.8 °F 37.5 °F 23.48 in WNW 2.2 mph -999 mph 45% 0.00 in
11:19 57.6 °F 37.5 °F 23.48 in SSW 3.2 mph -999 mph 47% 0.00 in
11:34 60.6 °F 38.6 °F 23.48 in WNW 3.2 mph -999 mph 44% 0.00 in
11:50 60.1 °F 36.9 °F 23.48 in NE 2.2 mph -999 mph 42% 0.00 in
12:05 62.8 °F 38.7 °F 23.48 in NW 6.8 mph -999 mph 41% 0.00 in
12:20 62.2 °F 36.3 °F 23.48 in NNW 2.7 mph -999 mph 38% 0.00 in
12:35 63.3 °F 35.9 °F 23.48 in South 4.7 mph -999 mph 36% 0.00 in
12:50 63.9 °F 37.1 °F 23.47 in NNW 3.2 mph -999 mph 37% 0.00 in
13:06 64 °F 43.9 °F 23.48 in North 5.3 mph -999 mph 48% 0.00 in
13:21 60.8 °F 45 °F 23.47 in North 5.3 mph -999 mph 56% 0.00 in
13:36 60.6 °F 44.8 °F 23.48 in NW 4.2 mph -999 mph 56% 0.00 in
13:51 60.1 °F 46.2 °F 23.47 in NW 3.7 mph -999 mph 60% 0.00 in
14:06 61.2 °F 46.3 °F 23.48 in West 1.7 mph -999 mph 58% 0.00 in
14:22 61 °F 45.7 °F 23.48 in NNW 5.8 mph -999 mph 57% 0.00 in
14:37 60.3 °F 44.5 °F 23.48 in NNW 3.7 mph -999 mph 56% 0.00 in
14:52 60.4 °F 44.2 °F 23.48 in NW 5.3 mph -999 mph 55% 0.00 in
15:08 60.6 °F 43.9 °F 23.47 in WNW 4.2 mph -999 mph 54% 0.00 in
15:24 58.3 °F 44.9 °F 23.47 in NNW 6.3 mph -999 mph 61% 0.00 in
15:39 56.3 °F 45.5 °F 23.47 in NNW 3.2 mph -999 mph 67% 0.00 in
15:54 53.1 °F 45 °F 23.47 in SSW 2.2 mph -999 mph 74% 0.00 in
16:10 53.8 °F 45.7 °F 23.47 in ESE 6.3 mph -999 mph 74% 0.00 in
16:25 54 °F 45.2 °F 23.47 in South 3.2 mph -999 mph 72% 0.00 in
16:41 55.6 °F 45.6 °F 23.46 in WNW 4.7 mph -999 mph 69% 0.00 in
16:56 59 °F 46 °F 23.46 in East 4.2 mph -999 mph 62% 0.00 in
17:12 58.8 °F 46.2 °F 23.46 in Calm   -999 mph 63% 0.00 in
17:27 58.8 °F 43.6 °F 23.46 in ESE 1.1 mph -999 mph 57% 0.00 in
17:42 55.6 °F 43.6 °F 23.46 in North 4.7 mph -999 mph 64% 0.00 in
17:57 58.6 °F 43.4 °F 23.46 in NW 2.2 mph -999 mph 57% 0.00 in
18:13 58.3 °F 43.6 °F 23.46 in NW 4.7 mph -999 mph 58% 0.00 in
18:28 56.3 °F 41.3 °F 23.46 in NW 3.7 mph -999 mph 57% 0.00 in
18:43 53.4 °F 40.3 °F 23.46 in NNW 4.2 mph -999 mph 61% 0.00 in
18:59 52.2 °F 40.8 °F 23.46 in SW 3.2 mph -999 mph 65% 0.00 in
19:14 50 °F 39.1 °F 23.46 in WNW 2.2 mph -999 mph 66% 0.00 in
19:29 49.6 °F 38.3 °F 23.47 in SW 1.7 mph -999 mph 65% 0.00 in
19:44 49.5 °F 39.4 °F 23.47 in WNW 4.7 mph -999 mph 68% 0.00 in
19:59 49.1 °F 39 °F 23.47 in Calm   -999 mph 68% 0.00 in
20:15 48.6 °F 39.6 °F 23.47 in Calm   -999 mph 71% 0.00 in
20:30 47.3 °F 37.6 °F 23.47 in Calm   -999 mph 69% 0.00 in
20:45 46.8 °F 37.9 °F 23.48 in Calm   -999 mph 71% 0.00 in
21:00 46 °F 37.5 °F 23.48 in SSE 1.7 mph -999 mph 72% 0.00 in
21:15 45.5 °F 37.3 °F 23.48 in South 2.2 mph -999 mph 73% 0.00 in
21:31 45 °F 36.9 °F 23.48 in Calm   -999 mph 73% 0.00 in
21:46 44.6 °F 36.1 °F 23.48 in Calm   -999 mph 72% 0.00 in
22:01 44.6 °F 35.8 °F 23.48 in Calm   -999 mph 71% 0.00 in
22:16 45.1 °F 35.5 °F 23.48 in SSE 2.7 mph -999 mph 69% 0.00 in
22:31 45.7 °F 35.4 °F 23.47 in South 4.2 mph -999 mph 67% 0.00 in
22:47 46.6 °F 35.8 °F 23.47 in Calm   -999 mph 66% 0.00 in
23:02 45.5 °F 35.6 °F 23.47 in Calm   -999 mph 68% 0.00 in
23:17 44.1 °F 35.3 °F 23.47 in Calm   -999 mph 71% 0.00 in
23:32 43 °F 34.6 °F 23.47 in Calm   -999 mph 72% 0.00 in
23:47 42.3 °F 34.3 °F 23.47 in Calm   -999 mph 73% 0.00 in
Big Bear CA Weather